Dogwood Acres, Texas
Current Conditions -  °F | °C
As of 2:53 AM on Monday 20 Oct 2014 (Local Time) from KIAH Reporting Station
Broken Clouds Broken Clouds  
Wind Chill: 63°   Ceiling: 25000
Heat Index: 63°   Visibility: 10mi
Dew Point: 59°   Wind: 5mph
Humidity: 87%   Direction: 80°E
Pressure: 30.03"   Gusts: NA
Location:  30.1192°N, 95.2824°W
Report Text: KIAH 200753Z 08004KT 10SM BKN250 17/15 A3003 RMK AO2 SLP167 T01720150 $
Loading
Personal Weather Stations






























Interactive Weather Map
Tropical Storm Tracking
New forecast layout! Learn more

10-Day Weather Forecast

Advertisements
Track Severe Weather on mobile